Pagina principale
METAR-TAF:

METAR-TAF

Aeroporti :

Aeroporto di Esenboğa

Ankara Esenboğa, Turchia

latitudine: 40-07N, longitudine: 032-59E, altezza: 953 m

Osservazione

Il bollettino è stato emesso 27 minuti fa, alle 02:50 UTC
Vento 3 kt da sud/sud-ovest
Temperature -4°C
Umidità 80%
Pressione 1017 hPa
Visibilità 10 km o più
nessuna nube inferiore a 1500 m e nessun cumulonembo

METAR: LTAC 220250Z 21003KT CAVOK M04/M07 Q1017 NOSIG RMK RWY21L VRB02KT RWY03L VRB02KT RWY21R 04002KT

Ora: 06:17 (03:17 UTC)

Previsione

Il bollettino è stato emesso 4 ore e 37 minuti fa, alle 22:40 UTC
Previsione valida dal 22 alle 00 UTC al 22 alle 24 UTC
Vento 2 kt da direzioni variabili
Visibilità 10 km o più
nessuna nube inferiore a 1500 m e nessun cumulonembo
Evoluzione graduale
dal 22 alle 06 UTC al 22 alle 09 UTC
Nubi sparse ad un'altezza di 4000 ft

TAF: LTAC 212240Z 2200/2224 VRB02KT CAVOK BECMG 2206/2209 SCT040

Osservazioni e previsioni meteorologiche di più di 4000 aeroporti (messaggi METAR e TAF).

Le stazioni disponibili sono rappresentate dai dischi gialli e rossi sulla carta.

Puntare il mouse per vedere il nome della stazione.

Clicca sopra per visualizzare le osservazioni e previsioni meteorologiche.

Per cambiare la mappa : fare clic sui pulsanti verdi con una croce nera per ingrandire, il pulsante verde con un trattino per diminuire, o sulla freccia verde per le mappe adiacenti.


METAR-TAF: